MEX weather

Licenciado Benito Juarez International Airport
Mexico City, Ciudad de México, Mexico

Public forecast

Using degrees Celsius for public forecast. Weather courtesy of forecast.io.

Current aviation weather report (METAR) for Licenciado Benito Juarez International Airport

Retrieved 2019/11/19 23:46 UTC (46 minutes ago):

MMMX 192346Z 35005KT 7SM BKN025TCU BKN080 22/07 A3022 NOSIG RMK SLP072 52003 914 8/230 HZY

Aviation forecast (TAF) for Licenciado Benito Juarez International Airport

Retrieved 2019-11-20 00:05 UTC (27 minutes ago):

TAF MMMX 192301Z 2000/2106 05006KT 5SM HZ SCT030 BKN080 TX23/2021Z TN12/2012Z BECMG 2002/2003 00000KT P6SM FM200600 04005KT P6SM SCT080 BECMG 2010/2011 6SM HZ SCT020 FM201800 35008KT P6SM SCT020 TEMPO 2022/2101 BKN020 FM210300 28006KT P6SM SCT020